createdAt,value
2019-05-01T00:02:23.277Z,10.83
2019-05-01T00:05:14.857Z,11.40
2019-05-01T00:07:47.545Z,11.40
2019-05-01T00:10:21.691Z,12.00
2019-05-01T00:12:54.272Z,12.23
2019-05-01T00:15:29.998Z,11.70
2019-05-01T00:18:02.509Z,12.00
2019-05-01T00:20:34.975Z,11.80
2019-05-01T00:23:07.637Z,12.87
2019-05-01T00:25:40.296Z,12.10
2019-05-01T00:28:13.729Z,11.27
2019-05-01T00:30:46.310Z,12.37
2019-05-01T00:33:18.911Z,12.50
2019-05-01T00:35:51.337Z,11.90
2019-05-01T00:38:23.866Z,12.07
2019-05-01T00:40:56.443Z,12.30
2019-05-01T00:43:28.953Z,13.23
2019-05-01T00:46:01.515Z,12.70
2019-05-01T00:48:33.934Z,13.20
2019-05-01T00:51:06.768Z,13.60
2019-05-01T00:53:39.341Z,12.70
2019-05-01T00:56:26.905Z,12.43
2019-05-01T00:59:16.887Z,12.20
2019-05-01T01:02:07.198Z,12.57
2019-05-01T01:04:39.898Z,12.83
2019-05-01T01:07:12.641Z,13.00
2019-05-01T01:09:45.042Z,12.80
2019-05-01T01:12:18.487Z,13.10
2019-05-01T01:14:50.986Z,13.10
2019-05-01T01:17:23.341Z,13.20
2019-05-01T01:19:55.687Z,12.83
2019-05-01T01:22:28.313Z,12.63
2019-05-01T01:25:01.210Z,12.87
2019-05-01T01:27:33.941Z,12.77
2019-05-01T01:30:07.592Z,12.70
2019-05-01T01:32:40.754Z,12.33
2019-05-01T01:35:14.285Z,12.60
2019-05-01T01:37:46.892Z,13.40
2019-05-01T01:40:19.549Z,12.87
2019-05-01T01:42:53.947Z,12.93
2019-05-01T01:45:41.756Z,13.03
2019-05-01T01:48:17.564Z,12.77
2019-05-01T01:50:50.275Z,12.97
2019-05-01T01:53:23.247Z,12.30
2019-05-01T01:55:55.904Z,12.27
2019-05-01T01:58:29.001Z,13.20
2019-05-01T02:01:21.106Z,12.60
2019-05-01T02:03:57.947Z,12.77
2019-05-01T02:06:30.794Z,12.63
2019-05-01T02:09:03.277Z,12.60
2019-05-01T02:11:37.471Z,13.30
2019-05-01T02:14:10.713Z,12.70
2019-05-01T02:16:43.561Z,13.03
2019-05-01T02:19:16.108Z,13.00
2019-05-01T02:21:48.678Z,12.80
2019-05-01T02:24:21.275Z,13.00
2019-05-01T02:26:55.980Z,13.10
2019-05-01T02:29:34.381Z,12.17
2019-05-01T02:32:07.079Z,12.83
2019-05-01T02:34:41.378Z,13.00
2019-05-01T02:37:15.923Z,12.80
2019-05-01T02:39:49.473Z,13.37
2019-05-01T02:42:24.575Z,12.63
2019-05-01T02:44:59.145Z,12.67
2019-05-01T02:47:36.250Z,13.17
2019-05-01T02:50:10.919Z,13.57
2019-05-01T02:52:45.004Z,13.70
2019-05-01T02:55:27.294Z,12.70
2019-05-01T02:58:00.826Z,12.90
2019-05-01T03:00:34.986Z,13.20
2019-05-01T03:03:07.905Z,13.17
2019-05-01T03:05:40.889Z,12.70
2019-05-01T03:08:13.904Z,12.37
2019-05-01T03:10:46.579Z,12.90
2019-05-01T03:13:19.736Z,13.17
2019-05-01T03:15:52.689Z,13.10
2019-05-01T03:18:33.734Z,13.30
2019-05-01T03:21:23.787Z,12.63
2019-05-01T03:24:09.444Z,13.10
2019-05-01T03:26:42.550Z,12.00
2019-05-01T03:29:15.131Z,11.77
2019-05-01T03:32:14.588Z,12.30
2019-05-01T03:34:21.974Z,11.93
2019-05-01T03:36:54.934Z,12.17
2019-05-01T03:39:27.603Z,12.20
2019-05-01T03:41:59.974Z,12.17
2019-05-01T03:44:32.506Z,12.13
2019-05-01T03:47:04.993Z,12.83
2019-05-01T03:49:37.778Z,12.57
2019-05-01T03:52:10.290Z,12.50
2019-05-01T03:54:43.366Z,12.30
2019-05-01T03:57:15.824Z,12.43
2019-05-01T03:59:48.364Z,13.17
2019-05-01T04:02:33.511Z,13.33
2019-05-01T04:05:05.383Z,12.93
2019-05-01T04:07:38.504Z,12.90
2019-05-01T04:10:11.952Z,12.53
2019-05-01T04:12:44.502Z,12.27
2019-05-01T04:15:17.011Z,12.50
2019-05-01T04:17:53.309Z,12.33
2019-05-01T04:20:26.137Z,12.50
2019-05-01T04:22:58.873Z,12.50
2019-05-01T04:25:31.921Z,12.47
2019-05-01T04:28:23.447Z,12.90
2019-05-01T04:31:06.558Z,14.17
2019-05-01T04:33:40.347Z,12.87
2019-05-01T04:36:18.855Z,13.17
2019-05-01T04:38:51.369Z,13.00
2019-05-01T04:41:23.974Z,13.13
2019-05-01T04:43:56.649Z,13.10
2019-05-01T04:46:29.358Z,13.23
2019-05-01T04:49:02.343Z,13.00
2019-05-01T04:51:35.421Z,13.27
2019-05-01T04:54:08.382Z,12.93
2019-05-01T04:56:41.517Z,12.47
2019-05-01T04:59:14.509Z,13.73
2019-05-01T05:01:58.456Z,14.30
2019-05-01T05:04:31.365Z,13.60
2019-05-01T05:09:48.158Z,13.17
2019-05-01T05:12:31.788Z,13.57
2019-05-01T05:15:15.465Z,12.90
2019-05-01T05:17:47.718Z,13.60
2019-05-01T05:20:20.044Z,13.57
2019-05-01T05:22:52.297Z,14.00
2019-05-01T05:25:24.706Z,13.00
2019-05-01T05:27:57.578Z,13.83
2019-05-01T05:30:32.538Z,14.20
2019-05-01T05:33:17.667Z,13.03
2019-05-01T05:35:42.506Z,13.80
2019-05-01T05:38:23.616Z,13.43
2019-05-01T05:41:00.290Z,14.20
2019-05-01T05:43:31.781Z,13.73
2019-05-01T05:46:04.166Z,14.17
2019-05-01T05:48:36.694Z,13.53
2019-05-01T05:51:30.623Z,14.10
2019-05-01T05:54:31.436Z,14.17
2019-05-01T05:57:18.003Z,14.30
2019-05-01T05:59:54.059Z,13.93
2019-05-01T06:02:56.378Z,14.03
2019-05-01T06:05:49.556Z,14.33
2019-05-01T06:08:26.107Z,13.50
2019-05-01T06:11:14.512Z,15.17
2019-05-01T06:14:10.821Z,14.50
2019-05-01T06:17:08.184Z,15.40
2019-05-01T06:19:51.169Z,14.20
2019-05-01T06:22:58.338Z,14.70
2019-05-01T06:25:34.662Z,14.93
2019-05-01T06:28:07.198Z,14.30
2019-05-01T06:30:42.140Z,14.77
2019-05-01T06:33:13.465Z,14.40
2019-05-01T06:35:45.935Z,14.03
2019-05-01T06:38:18.341Z,13.57
2019-05-01T06:40:58.150Z,14.60
2019-05-01T06:43:52.221Z,14.27
2019-05-01T06:46:35.365Z,14.53
2019-05-01T06:49:29.488Z,15.13
2019-05-01T06:51:59.535Z,14.77
2019-05-01T06:54:34.034Z,14.53
2019-05-01T06:57:07.278Z,15.27
2019-05-01T06:59:40.991Z,16.40
2019-05-01T07:02:16.118Z,14.83
2019-05-01T07:04:49.925Z,15.27
2019-05-01T07:07:25.910Z,15.37
2019-05-01T07:09:59.281Z,15.00
2019-05-01T07:12:32.709Z,14.43
2019-05-01T07:15:05.874Z,16.03
2019-05-01T07:17:38.897Z,15.10
2019-05-01T07:20:28.702Z,15.60
2019-05-01T07:23:01.170Z,15.27
2019-05-01T07:25:34.912Z,15.37
2019-05-01T07:28:07.642Z,15.27
2019-05-01T07:30:59.092Z,15.10
2019-05-01T07:33:31.876Z,15.53
2019-05-01T07:36:06.915Z,15.43
2019-05-01T07:38:40.539Z,15.53
2019-05-01T07:41:13.129Z,17.23
2019-05-01T07:43:59.773Z,16.03
2019-05-01T07:46:48.942Z,17.13
2019-05-01T07:49:29.332Z,17.60
2019-05-01T07:52:01.872Z,16.57
2019-05-01T07:54:37.788Z,16.90
2019-05-01T07:57:08.569Z,17.70
2019-05-01T07:59:40.949Z,18.13
2019-05-01T08:02:13.881Z,18.83
2019-05-01T08:04:46.608Z,18.47
2019-05-01T08:07:18.970Z,17.80
2019-05-01T08:09:51.489Z,18.47
2019-05-01T08:12:25.673Z,18.10
2019-05-01T08:14:57.842Z,17.47
2019-05-01T08:17:32.195Z,17.20
2019-05-01T08:20:23.991Z,17.90
2019-05-01T08:22:56.389Z,17.23
2019-05-01T08:25:33.089Z,17.20
2019-05-01T08:28:14.845Z,17.33
2019-05-01T08:31:06.261Z,20.33
2019-05-01T08:33:56.350Z,19.37
2019-05-01T08:36:28.714Z,19.53
2019-05-01T08:39:04.968Z,20.53
2019-05-01T08:41:37.699Z,21.23
2019-05-01T08:44:09.510Z,22.33
2019-05-01T08:46:55.417Z,20.47
2019-05-01T08:49:41.729Z,23.93
2019-05-01T08:52:13.902Z,26.10
2019-05-01T08:54:46.486Z,24.10
2019-05-01T08:57:19.013Z,23.40
2019-05-01T08:59:51.412Z,23.50
2019-05-01T09:02:23.777Z,23.60
2019-05-01T09:05:02.381Z,22.40
2019-05-01T09:07:31.394Z,23.37
2019-05-01T09:10:04.133Z,23.10
2019-05-01T09:12:36.489Z,25.00
2019-05-01T09:15:12.636Z,22.37
2019-05-01T09:17:43.092Z,22.53
2019-05-01T09:20:16.780Z,23.23
2019-05-01T09:22:49.363Z,22.87
2019-05-01T09:25:30.981Z,24.83
2019-05-01T09:28:20.034Z,26.07
2019-05-01T09:31:02.268Z,25.67
2019-05-01T09:33:32.823Z,24.73
2019-05-01T09:36:05.278Z,24.90
2019-05-01T09:38:37.668Z,24.83
2019-05-01T09:41:10.518Z,23.17
2019-05-01T09:43:42.965Z,21.73
2019-05-01T09:46:15.478Z,20.73
2019-05-01T09:48:47.873Z,21.87
2019-05-01T09:51:30.390Z,22.77
2019-05-01T09:54:25.726Z,23.00
2019-05-01T09:56:57.993Z,20.60
2019-05-01T09:59:30.371Z,22.37
2019-05-01T10:02:03.068Z,19.87
2019-05-01T10:04:36.853Z,20.30
2019-05-01T10:07:09.745Z,17.77
2019-05-01T10:09:42.064Z,19.90
2019-05-01T10:12:14.338Z,21.03
2019-05-01T10:14:46.593Z,19.00
2019-05-01T10:17:18.889Z,19.00
2019-05-01T10:19:51.234Z,19.20
2019-05-01T10:22:23.509Z,19.63
2019-05-01T10:24:58.617Z,18.53
2019-05-01T10:27:35.786Z,19.97
2019-05-01T10:30:24.373Z,19.63
2019-05-01T10:33:01.640Z,19.03
2019-05-01T10:35:43.482Z,18.33
2019-05-01T10:38:15.804Z,19.07
2019-05-01T10:40:48.561Z,16.90
2019-05-01T10:43:25.074Z,17.07
2019-05-01T10:46:00.813Z,17.60
2019-05-01T10:48:33.453Z,18.50
2019-05-01T10:51:05.793Z,18.70
2019-05-01T10:53:38.046Z,15.43
2019-05-01T10:56:10.541Z,16.37
2019-05-01T10:58:42.936Z,16.10
2019-05-01T11:01:31.137Z,17.13
2019-05-01T11:04:03.353Z,17.60
2019-05-01T11:06:35.660Z,17.90
2019-05-01T11:09:09.225Z,16.03
2019-05-01T11:11:41.650Z,19.00
2019-05-01T11:14:14.046Z,17.67
2019-05-01T11:16:46.863Z,18.43
2019-05-01T11:19:19.222Z,16.17
2019-05-01T11:21:51.550Z,17.90
2019-05-01T11:24:23.860Z,18.33
2019-05-01T11:26:56.178Z,17.10
2019-05-01T11:29:28.576Z,15.07
2019-05-01T11:32:09.619Z,14.50
2019-05-01T11:34:59.333Z,17.37
2019-05-01T11:37:43.164Z,15.20
2019-05-01T11:40:37.169Z,15.10
2019-05-01T11:43:09.455Z,14.70
2019-05-01T11:45:41.863Z,12.93
2019-05-01T11:48:14.218Z,13.53
2019-05-01T11:50:46.381Z,13.00
2019-05-01T11:53:18.793Z,12.30
2019-05-01T11:55:51.271Z,11.83
2019-05-01T11:58:23.491Z,12.87
2019-05-01T12:00:57.485Z,12.20
2019-05-01T12:03:29.994Z,10.77
2019-05-01T12:06:02.449Z,12.20
2019-05-01T12:08:34.753Z,12.37
2019-05-01T12:11:08.536Z,11.47
2019-05-01T12:13:43.798Z,10.33
2019-05-01T12:16:23.652Z,10.90
2019-05-01T12:18:55.902Z,9.77
2019-05-01T12:21:28.100Z,10.90
2019-05-01T12:24:00.461Z,10.73
2019-05-01T12:26:32.859Z,9.80
2019-05-01T12:29:05.298Z,10.27
2019-05-01T12:31:38.520Z,12.83
2019-05-01T12:34:11.733Z,12.40
2019-05-01T12:36:44.726Z,11.57
2019-05-01T12:39:17.198Z,10.50
2019-05-01T12:41:54.861Z,12.03
2019-05-01T12:44:27.201Z,11.87
2019-05-01T12:47:22.604Z,12.50
2019-05-01T12:49:54.927Z,11.77
2019-05-01T12:52:41.728Z,13.33
2019-05-01T12:55:20.556Z,14.03
2019-05-01T12:57:52.813Z,12.27
2019-05-01T13:00:40.265Z,13.97
2019-05-01T13:03:12.527Z,9.83
2019-05-01T13:05:45.026Z,10.60
2019-05-01T13:08:17.415Z,11.40
2019-05-01T13:10:50.653Z,10.50
2019-05-01T13:13:22.901Z,10.73
2019-05-01T13:15:55.297Z,10.63
2019-05-01T13:18:27.792Z,9.37
2019-05-01T13:21:00.140Z,10.20
2019-05-01T13:23:32.465Z,9.93
2019-05-01T13:26:11.816Z,8.83
2019-05-01T13:29:09.123Z,8.43
2019-05-01T13:31:48.742Z,9.00
2019-05-01T13:34:23.312Z,8.87
2019-05-01T13:37:02.693Z,9.90
2019-05-01T13:39:29.644Z,9.10
2019-05-01T13:42:01.882Z,9.40
2019-05-01T13:44:34.193Z,8.83
2019-05-01T13:47:06.516Z,9.80
2019-05-01T13:49:38.889Z,8.90
2019-05-01T13:52:11.205Z,7.97
2019-05-01T13:54:43.509Z,8.63
2019-05-01T13:57:16.155Z,8.10
2019-05-01T13:59:48.538Z,9.00
2019-05-01T14:02:20.782Z,8.30
2019-05-01T14:04:53.383Z,7.83
2019-05-01T14:07:25.869Z,7.83
2019-05-01T14:09:58.123Z,8.07
2019-05-01T14:12:30.503Z,8.20
2019-05-01T14:15:02.974Z,8.03
2019-05-01T14:17:35.356Z,8.70
2019-05-01T14:20:15.556Z,8.57
2019-05-01T14:22:52.474Z,8.80
2019-05-01T14:25:24.810Z,8.10
2019-05-01T14:27:57.204Z,8.33
2019-05-01T14:30:29.591Z,7.73
2019-05-01T14:33:01.894Z,7.93
2019-05-01T14:35:34.149Z,8.03
2019-05-01T14:38:06.523Z,7.43
2019-05-01T14:40:38.877Z,8.20
2019-05-01T14:43:11.354Z,7.80
2019-05-01T14:45:43.517Z,8.10
2019-05-01T14:48:15.905Z,8.00
2019-05-01T14:50:48.296Z,8.50
2019-05-01T14:53:21.925Z,8.43
2019-05-01T14:55:54.436Z,8.33
2019-05-01T14:58:26.853Z,8.60
2019-05-01T15:00:59.541Z,7.87
2019-05-01T15:03:31.816Z,10.53
2019-05-01T15:06:04.328Z,9.53
2019-05-01T15:08:38.100Z,11.23
2019-05-01T15:11:12.675Z,9.20
2019-05-01T15:14:02.550Z,10.30
2019-05-01T15:16:42.792Z,10.50
2019-05-01T15:19:20.994Z,9.83
2019-05-01T15:21:54.088Z,9.20
2019-05-01T15:24:26.484Z,7.77
2019-05-01T15:26:58.960Z,8.17
2019-05-01T15:29:31.317Z,8.23
2019-05-01T15:32:03.885Z,8.07
2019-05-01T15:34:36.260Z,8.80
2019-05-01T15:37:11.454Z,7.93
2019-05-01T15:39:58.058Z,7.80
2019-05-01T15:42:36.073Z,8.57
2019-05-01T15:45:08.717Z,8.90
2019-05-01T15:47:41.184Z,7.93
2019-05-01T15:50:13.768Z,7.83
2019-05-01T15:52:46.032Z,8.60
2019-05-01T15:55:18.309Z,8.47
2019-05-01T15:57:50.777Z,8.10
2019-05-01T16:00:23.315Z,10.13
2019-05-01T16:02:55.545Z,8.53
2019-05-01T16:05:27.865Z,7.93
2019-05-01T16:08:09.540Z,9.57
2019-05-01T16:10:39.342Z,8.53
2019-05-01T16:13:11.963Z,8.50
2019-05-01T16:15:44.089Z,9.37
2019-05-01T16:18:16.840Z,9.33
2019-05-01T16:20:49.248Z,9.93
2019-05-01T16:23:21.537Z,8.67
2019-05-01T16:25:53.951Z,10.23
2019-05-01T16:28:26.995Z,8.60
2019-05-01T16:30:59.402Z,8.30
2019-05-01T16:33:31.669Z,9.07
2019-05-01T16:36:04.898Z,10.57
2019-05-01T16:38:57.812Z,10.27
2019-05-01T16:41:30.595Z,8.97
2019-05-01T16:44:03.173Z,8.50
2019-05-01T16:46:35.413Z,11.17
2019-05-01T16:49:07.836Z,10.53
2019-05-01T16:51:40.164Z,10.27
2019-05-01T16:54:12.592Z,11.27
2019-05-01T16:56:44.953Z,11.33
2019-05-01T16:59:18.472Z,9.90
2019-05-01T17:02:00.174Z,10.53
2019-05-01T17:04:47.432Z,9.00
2019-05-01T17:07:28.156Z,8.77
2019-05-01T17:10:12.094Z,10.23
2019-05-01T17:12:54.764Z,10.53
2019-05-01T17:15:31.227Z,9.97
2019-05-01T17:18:04.028Z,10.87
2019-05-01T17:20:36.492Z,11.30
2019-05-01T17:23:09.162Z,11.03
2019-05-01T17:25:41.745Z,10.63
2019-05-01T17:28:15.301Z,10.80
2019-05-01T17:30:52.736Z,10.50
2019-05-01T17:33:25.230Z,11.43
2019-05-01T17:35:57.889Z,11.60
2019-05-01T17:38:30.190Z,10.70
2019-05-01T17:41:03.657Z,11.47
2019-05-01T17:43:36.851Z,11.43
2019-05-01T17:46:10.726Z,11.50
2019-05-01T17:48:43.746Z,11.83
2019-05-01T17:51:19.816Z,13.33
2019-05-01T17:53:53.196Z,12.50
2019-05-01T17:56:28.353Z,12.00
2019-05-01T17:58:59.803Z,11.90
2019-05-01T18:01:46.450Z,12.93
2019-05-01T18:04:37.763Z,12.20
2019-05-01T18:07:13.862Z,13.10
2019-05-01T18:09:46.542Z,10.70
2019-05-01T18:12:23.451Z,11.40
2019-05-01T18:17:26.226Z,13.27
2019-05-01T18:19:59.221Z,12.77
2019-05-01T18:22:50.874Z,13.67
2019-05-01T18:25:36.138Z,13.83
2019-05-01T18:28:30.100Z,13.20
2019-05-01T18:31:02.236Z,12.73
2019-05-01T18:33:34.729Z,13.50
2019-05-01T18:36:07.921Z,13.23
2019-05-01T18:38:50.334Z,12.83
2019-05-01T18:41:32.247Z,13.07
2019-05-01T18:44:09.753Z,13.63
2019-05-01T18:46:40.249Z,13.23
2019-05-01T18:49:21.893Z,12.83
2019-05-01T18:51:57.887Z,12.87
2019-05-01T18:54:35.040Z,13.80
2019-05-01T18:57:05.599Z,12.83
2019-05-01T18:59:38.200Z,13.30
2019-05-01T19:02:11.930Z,13.03
2019-05-01T19:04:45.213Z,13.63
2019-05-01T19:07:17.820Z,12.53
2019-05-01T19:09:53.811Z,13.80
2019-05-01T19:12:26.485Z,13.77
2019-05-01T19:15:00.249Z,13.50
2019-05-01T19:17:33.120Z,14.27
2019-05-01T19:20:06.688Z,13.90
2019-05-01T19:22:40.872Z,14.13
2019-05-01T19:25:16.151Z,13.80
2019-05-01T19:27:50.010Z,13.70
2019-05-01T19:30:22.489Z,14.57
2019-05-01T19:32:54.896Z,14.27
2019-05-01T19:35:29.686Z,14.23
2019-05-01T19:38:02.577Z,14.77
2019-05-01T19:40:35.439Z,15.30
2019-05-01T19:43:08.703Z,15.30
2019-05-01T19:45:41.815Z,15.20
2019-05-01T19:48:15.677Z,15.37
2019-05-01T19:50:49.549Z,15.63
2019-05-01T19:53:22.743Z,15.80
2019-05-01T19:55:55.815Z,16.93
2019-05-01T19:58:28.581Z,16.20
2019-05-01T20:01:04.971Z,16.40
2019-05-01T20:03:38.602Z,16.90
2019-05-01T20:06:11.947Z,16.50
2019-05-01T20:08:45.392Z,16.27
2019-05-01T20:11:22.592Z,15.13
2019-05-01T20:13:55.651Z,16.20
2019-05-01T20:16:30.744Z,16.63
2019-05-01T20:19:04.817Z,16.20
2019-05-01T20:21:41.726Z,17.13
2019-05-01T20:24:14.352Z,16.67
2019-05-01T20:26:48.098Z,16.67
2019-05-01T20:29:21.557Z,18.37
2019-05-01T20:31:54.146Z,17.00
2019-05-01T20:34:26.938Z,17.97
2019-05-01T20:36:59.913Z,17.93
2019-05-01T20:39:32.660Z,17.90
2019-05-01T20:42:05.705Z,17.63
2019-05-01T20:44:38.908Z,18.57
2019-05-01T20:47:11.454Z,18.10
2019-05-01T20:49:43.928Z,18.17
2019-05-01T20:52:16.897Z,17.80
2019-05-01T20:54:49.976Z,19.07
2019-05-01T20:57:27.849Z,18.40
2019-05-01T21:00:00.435Z,18.97
2019-05-01T21:02:34.263Z,18.73
2019-05-01T21:05:22.176Z,19.27
2019-05-01T21:08:13.468Z,19.00
2019-05-01T21:11:17.078Z,19.07
2019-05-01T21:13:49.724Z,18.73
2019-05-01T21:16:22.466Z,19.97
2019-05-01T21:18:54.918Z,18.77
2019-05-01T21:21:27.406Z,19.70
2019-05-01T21:24:00.193Z,20.33
2019-05-01T21:26:33.551Z,20.63
2019-05-01T21:29:05.971Z,18.90
2019-05-01T21:31:38.498Z,21.87
2019-05-01T21:34:11.296Z,20.83
2019-05-01T21:36:47.545Z,19.47
2019-05-01T21:39:19.765Z,20.20
2019-05-01T21:41:53.316Z,20.53
2019-05-01T21:44:25.834Z,20.87
2019-05-01T21:46:58.309Z,21.77
2019-05-01T21:49:33.129Z,20.97
2019-05-01T21:52:07.301Z,20.57
2019-05-01T21:54:39.545Z,20.37
2019-05-01T21:57:17.411Z,20.03
2019-05-01T21:59:48.123Z,19.83
2019-05-01T22:02:21.081Z,20.37
2019-05-01T22:04:53.370Z,20.27
2019-05-01T22:07:27.795Z,20.37
2019-05-01T22:10:00.086Z,20.30
2019-05-01T22:12:32.733Z,20.70
2019-05-01T22:15:12.283Z,20.77
2019-05-01T22:18:09.716Z,20.10
2019-05-01T22:20:49.612Z,20.20
2019-05-01T22:23:27.248Z,20.57
2019-05-01T22:26:02.311Z,19.57
2019-05-01T22:28:54.603Z,19.73
2019-05-01T22:31:42.648Z,19.80
2019-05-01T22:34:24.253Z,21.47
2019-05-01T22:36:56.849Z,21.57
2019-05-01T22:39:31.519Z,21.37
2019-05-01T22:42:04.313Z,20.73
2019-05-01T22:44:36.980Z,19.60
2019-05-01T22:47:10.200Z,22.30
2019-05-01T22:49:44.782Z,19.60
2019-05-01T22:52:18.097Z,20.73
2019-05-01T22:54:51.423Z,21.20
2019-05-01T22:57:24.105Z,20.37
2019-05-01T22:59:56.919Z,20.47
2019-05-01T23:02:39.960Z,21.23
2019-05-01T23:05:12.755Z,22.03
2019-05-01T23:07:45.964Z,21.77
2019-05-01T23:10:18.854Z,22.50
2019-05-01T23:12:51.412Z,22.77
2019-05-01T23:15:26.198Z,21.83
2019-05-01T23:18:00.954Z,22.37
2019-05-01T23:20:34.784Z,21.83
2019-05-01T23:23:08.393Z,22.63
2019-05-01T23:25:42.404Z,22.07
2019-05-01T23:28:15.639Z,23.70
2019-05-01T23:30:47.994Z,21.70
2019-05-01T23:33:29.606Z,21.43
2019-05-01T23:36:02.385Z,22.97
2019-05-01T23:38:34.720Z,19.83
2019-05-01T23:41:07.887Z,21.87
2019-05-01T23:43:40.824Z,21.77
2019-05-01T23:46:13.650Z,21.57
2019-05-01T23:48:46.376Z,23.03
2019-05-01T23:51:23.585Z,22.10
2019-05-01T23:53:53.478Z,22.60
2019-05-01T23:56:26.001Z,22.37
2019-05-01T23:58:58.542Z,21.30
